AIB001 EBBR-BIKF
Flight info
| Callsign | AIB001 |
|---|---|
| Flight time | 2h 42m |
| Altitude | 38000 |
| Route | EBBR/25R N0484F380 DENU4G DENUT L610 NILON DCT WESUL M14 STOAT L613 LEHOC DCT INPIP DCT GOW DCT EVBEV DCT BALIX/M084F380 DCT BREKI DCT BASLU BASL4N BIKF/01 |
| Aircraft | A359/H-SDE2E3GHIJ1J3J4J5LM1ORWXYZ/LB1D1 |
Departure
| Time | 2026-05-07 18:24 |
|---|---|
| Airport | Brussels Airport (EBBR) |
Arrival
| Time | 2026-05-07 21:07 |
|---|---|
| Airport | Keflavik International Airport (BIKF) |
| Time | Latitude | Longitude | Altitude | Speed | Heading |
|---|---|---|---|---|---|
| 2026-05-07 17:45 | 50.89733 | 4.48944 | 150 ft | 0 kts | 155° |
| 2026-05-07 18:06 | 50.89740 | 4.48939 | 150 ft | 4 kts | 155° |
| 2026-05-07 18:06 | 50.89764 | 4.48921 | 148 ft | 3 kts | 155° |
| 2026-05-07 18:06 | 50.89783 | 4.48907 | 147 ft | 3 kts | 155° |
| 2026-05-07 18:07 | 50.89798 | 4.48891 | 146 ft | 6 kts | 86° |
| 2026-05-07 18:07 | 50.89791 | 4.48854 | 146 ft | 6 kts | 65° |
| 2026-05-07 18:07 | 50.89780 | 4.48815 | 146 ft | 6 kts | 65° |
| 2026-05-07 18:07 | 50.89775 | 4.48801 | 146 ft | 4 kts | 65° |
| 2026-05-07 18:08 | 50.89776 | 4.48801 | 146 ft | 0 kts | 65° |
| 2026-05-07 18:10 | 50.89788 | 4.48846 | 146 ft | 13 kts | 65° |
| 2026-05-07 18:10 | 50.89830 | 4.48993 | 146 ft | 16 kts | 65° |
| 2026-05-07 18:11 | 50.89874 | 4.49152 | 146 ft | 9 kts | 77° |
| 2026-05-07 18:11 | 50.89859 | 4.49208 | 146 ft | 8 kts | 141° |
| 2026-05-07 18:11 | 50.89789 | 4.49203 | 150 ft | 5 kts | 194° |
| 2026-05-07 18:11 | 50.89774 | 4.49197 | 151 ft | 0 kts | 194° |
| 2026-05-07 18:12 | 50.89735 | 4.49181 | 153 ft | 15 kts | 194° |
| 2026-05-07 18:12 | 50.89633 | 4.49155 | 160 ft | 13 kts | 160° |
| 2026-05-07 18:12 | 50.89634 | 4.49256 | 159 ft | 12 kts | 35° |
| 2026-05-07 18:12 | 50.89779 | 4.49317 | 150 ft | 29 kts | 14° |
| 2026-05-07 18:13 | 50.89913 | 4.49371 | 142 ft | 10 kts | 14° |
| 2026-05-07 18:13 | 50.90005 | 4.49409 | 138 ft | 17 kts | 14° |
| 2026-05-07 18:13 | 50.90132 | 4.49461 | 136 ft | 21 kts | 14° |
| 2026-05-07 18:13 | 50.90284 | 4.49523 | 124 ft | 24 kts | 14° |
| 2026-05-07 18:14 | 50.90457 | 4.49593 | 126 ft | 27 kts | 14° |
| 2026-05-07 18:14 | 50.90641 | 4.49668 | 126 ft | 28 kts | 14° |
| 2026-05-07 18:14 | 50.90724 | 4.49702 | 126 ft | 0 kts | 14° |
| 2026-05-07 18:15 | 50.90730 | 4.49705 | 127 ft | 2 kts | 14° |
| 2026-05-07 18:15 | 50.90744 | 4.49710 | 126 ft | 0 kts | 14° |
| 2026-05-07 18:16 | 50.90750 | 4.49713 | 128 ft | 6 kts | 14° |
| 2026-05-07 18:16 | 50.90849 | 4.49753 | 126 ft | 18 kts | 14° |
| 2026-05-07 18:16 | 50.90921 | 4.49793 | 124 ft | 0 kts | 28° |
| 2026-05-07 18:17 | 50.90925 | 4.49797 | 124 ft | 6 kts | 30° |
| 2026-05-07 18:17 | 50.90970 | 4.49849 | 123 ft | 0 kts | 38° |
| 2026-05-07 18:21 | 50.90971 | 4.49850 | 124 ft | 1 kts | 38° |
| 2026-05-07 18:21 | 50.91016 | 4.49894 | 123 ft | 6 kts | 27° |
| 2026-05-07 18:21 | 50.91026 | 4.49902 | 125 ft | 0 kts | 26° |
| 2026-05-07 18:22 | 50.91125 | 4.49900 | 122 ft | 12 kts | 293° |
| 2026-05-07 18:22 | 50.91109 | 4.49779 | 120 ft | 0 kts | 244° |
| 2026-05-07 18:23 | 50.91061 | 4.49616 | 121 ft | 48 kts | 245° |
| 2026-05-07 18:24 | 50.90828 | 4.48810 | 123 ft | 110 kts | 245° |
| 2026-05-07 18:24 | 50.90430 | 4.47435 | 138 ft | 162 kts | 246° |
| 2026-05-07 18:24 | 50.89964 | 4.45850 | 757 ft | 155 kts | 245° |
| 2026-05-07 18:24 | 50.89432 | 4.44259 | 1022 ft | 176 kts | 256° |
| 2026-05-07 18:25 | 50.89669 | 4.42377 | 1392 ft | 185 kts | 307° |
| 2026-05-07 18:25 | 50.90448 | 4.40733 | 1918 ft | 193 kts | 303° |
| 2026-05-07 18:25 | 50.91056 | 4.38693 | 2201 ft | 216 kts | 290° |
| 2026-05-07 18:25 | 50.91510 | 4.36307 | 2502 ft | 239 kts | 284° |
| 2026-05-07 18:26 | 50.91877 | 4.33619 | 2913 ft | 256 kts | 281° |
| 2026-05-07 18:26 | 50.92194 | 4.30805 | 3608 ft | 261 kts | 280° |
| 2026-05-07 18:26 | 50.92770 | 4.28074 | 4315 ft | 264 kts | 301° |
| 2026-05-07 18:26 | 50.93654 | 4.25506 | 5057 ft | 266 kts | 296° |
| 2026-05-07 18:27 | 50.94432 | 4.22817 | 5805 ft | 268 kts | 293° |
| 2026-05-07 18:27 | 50.95162 | 4.20120 | 6590 ft | 270 kts | 292° |
| 2026-05-07 18:27 | 50.95897 | 4.17366 | 7358 ft | 272 kts | 292° |
| 2026-05-07 18:27 | 50.96393 | 4.15523 | 7889 ft | 274 kts | 292° |
| 2026-05-07 18:28 | 50.97419 | 4.11792 | 8954 ft | 277 kts | 293° |
| 2026-05-07 18:28 | 50.98207 | 4.08980 | 9767 ft | 280 kts | 293° |
| 2026-05-07 18:28 | 50.99012 | 4.06133 | 10419 ft | 288 kts | 293° |
| 2026-05-07 18:28 | 50.99853 | 4.03167 | 10735 ft | 308 kts | 293° |
| 2026-05-07 18:29 | 51.00762 | 3.99962 | 11021 ft | 328 kts | 293° |
| 2026-05-07 18:29 | 51.01722 | 3.96578 | 11424 ft | 342 kts | 293° |
| 2026-05-07 18:29 | 51.02708 | 3.93098 | 12077 ft | 348 kts | 293° |
| 2026-05-07 18:29 | 51.03707 | 3.89573 | 12795 ft | 352 kts | 293° |
| 2026-05-07 18:30 | 51.04715 | 3.86005 | 13511 ft | 356 kts | 293° |
| 2026-05-07 18:30 | 51.05732 | 3.82399 | 14167 ft | 359 kts | 293° |
| 2026-05-07 18:30 | 51.06761 | 3.78743 | 14814 ft | 362 kts | 293° |
| 2026-05-07 18:30 | 51.07794 | 3.75062 | 15450 ft | 365 kts | 293° |
| 2026-05-07 18:31 | 51.08834 | 3.71352 | 16105 ft | 368 kts | 293° |
| 2026-05-07 18:31 | 51.09878 | 3.67620 | 16749 ft | 371 kts | 293° |
| 2026-05-07 18:31 | 51.10918 | 3.63899 | 17388 ft | 374 kts | 293° |
| 2026-05-07 18:31 | 51.11978 | 3.60097 | 18064 ft | 377 kts | 293° |
| 2026-05-07 18:32 | 51.13045 | 3.56265 | 18693 ft | 380 kts | 292° |
| 2026-05-07 18:32 | 51.14120 | 3.52397 | 19292 ft | 383 kts | 292° |
| 2026-05-07 18:32 | 51.15202 | 3.48500 | 19905 ft | 386 kts | 292° |
| 2026-05-07 18:32 | 51.16293 | 3.44562 | 20500 ft | 388 kts | 292° |
| 2026-05-07 18:33 | 51.17386 | 3.40612 | 21112 ft | 391 kts | 292° |
| 2026-05-07 18:33 | 51.18485 | 3.36630 | 21702 ft | 394 kts | 292° |
| 2026-05-07 18:33 | 51.19581 | 3.32657 | 22288 ft | 397 kts | 292° |
| 2026-05-07 18:33 | 51.20694 | 3.28612 | 22881 ft | 400 kts | 292° |
| 2026-05-07 18:34 | 51.21815 | 3.24533 | 23459 ft | 402 kts | 292° |
| 2026-05-07 18:34 | 51.22942 | 3.20420 | 23901 ft | 406 kts | 292° |
| 2026-05-07 18:34 | 51.24074 | 3.16288 | 24064 ft | 406 kts | 292° |
| 2026-05-07 18:34 | 51.25206 | 3.12146 | 24074 ft | 406 kts | 292° |
| 2026-05-07 18:35 | 51.26336 | 3.08004 | 24075 ft | 407 kts | 292° |
| 2026-05-07 18:35 | 51.27468 | 3.03847 | 24074 ft | 407 kts | 291° |
| 2026-05-07 18:35 | 51.28598 | 2.99690 | 24164 ft | 409 kts | 291° |
| 2026-05-07 18:35 | 51.29732 | 2.95508 | 24590 ft | 411 kts | 291° |
| 2026-05-07 18:36 | 51.30857 | 2.91352 | 24963 ft | 412 kts | 291° |
| 2026-05-07 18:36 | 51.31994 | 2.87150 | 25099 ft | 411 kts | 291° |
| 2026-05-07 18:36 | 51.33133 | 2.82929 | 25372 ft | 414 kts | 291° |
| 2026-05-07 18:36 | 51.34273 | 2.78678 | 25868 ft | 416 kts | 291° |
| 2026-05-07 18:37 | 51.35208 | 2.74305 | 26388 ft | 416 kts | 283° |
| 2026-05-07 18:37 | 51.35895 | 2.69785 | 26845 ft | 418 kts | 281° |
| 2026-05-07 18:37 | 51.36503 | 2.65279 | 27309 ft | 420 kts | 280° |
| 2026-05-07 18:37 | 51.37077 | 2.60685 | 27771 ft | 422 kts | 279° |
| 2026-05-07 18:38 | 51.37635 | 2.56053 | 28222 ft | 425 kts | 279° |
| 2026-05-07 18:38 | 51.38190 | 2.51391 | 28669 ft | 427 kts | 279° |
| 2026-05-07 18:38 | 51.38747 | 2.46712 | 29091 ft | 429 kts | 279° |
| 2026-05-07 18:38 | 51.39312 | 2.41984 | 29525 ft | 432 kts | 279° |
| 2026-05-07 18:39 | 51.39880 | 2.37247 | 29948 ft | 434 kts | 279° |
| 2026-05-07 18:39 | 51.40453 | 2.32479 | 30321 ft | 436 kts | 279° |
| 2026-05-07 18:39 | 51.41027 | 2.27692 | 30643 ft | 439 kts | 279° |
| 2026-05-07 18:39 | 51.41600 | 2.22925 | 30957 ft | 441 kts | 279° |
| 2026-05-07 18:40 | 51.42190 | 2.18083 | 31281 ft | 443 kts | 279° |
| 2026-05-07 18:40 | 51.42785 | 2.13217 | 31582 ft | 446 kts | 279° |
| 2026-05-07 18:40 | 51.43383 | 2.08326 | 31875 ft | 448 kts | 279° |
| 2026-05-07 18:40 | 51.43981 | 2.03415 | 32045 ft | 450 kts | 279° |
| 2026-05-07 18:41 | 51.44578 | 1.98494 | 32073 ft | 450 kts | 280° |
| 2026-05-07 18:41 | 51.45561 | 1.90284 | 32074 ft | 450 kts | 279° |
| 2026-05-07 18:42 | 51.46709 | 1.80420 | 32070 ft | 449 kts | 279° |
| 2026-05-07 18:42 | 51.47839 | 1.70558 | 32073 ft | 449 kts | 279° |
| 2026-05-07 18:43 | 51.48958 | 1.60741 | 32072 ft | 449 kts | 279° |
| 2026-05-07 18:43 | 51.50082 | 1.50867 | 32071 ft | 449 kts | 279° |
| 2026-05-07 18:44 | 51.51189 | 1.41041 | 32070 ft | 449 kts | 279° |
| 2026-05-07 18:44 | 51.52293 | 1.31164 | 32078 ft | 449 kts | 279° |
| 2026-05-07 18:44 | 51.52845 | 1.26201 | 32265 ft | 451 kts | 279° |
| 2026-05-07 18:45 | 51.53397 | 1.21214 | 32582 ft | 452 kts | 278° |
| 2026-05-07 18:45 | 51.53940 | 1.16299 | 32870 ft | 454 kts | 278° |
| 2026-05-07 18:45 | 51.54492 | 1.11288 | 33149 ft | 455 kts | 279° |
| 2026-05-07 18:45 | 51.55046 | 1.06257 | 33393 ft | 457 kts | 278° |
| 2026-05-07 18:46 | 51.55595 | 1.01214 | 33640 ft | 459 kts | 278° |
| 2026-05-07 18:46 | 51.56143 | 0.96158 | 33972 ft | 458 kts | 278° |
| 2026-05-07 18:46 | 51.56691 | 0.91110 | 34294 ft | 458 kts | 278° |
| 2026-05-07 18:46 | 51.57235 | 0.86056 | 34539 ft | 458 kts | 278° |
| 2026-05-07 18:47 | 51.57768 | 0.81062 | 34737 ft | 459 kts | 278° |
| 2026-05-07 18:47 | 51.58307 | 0.75992 | 34967 ft | 460 kts | 278° |
| 2026-05-07 18:47 | 51.58907 | 0.70924 | 35165 ft | 462 kts | 282° |
| 2026-05-07 18:47 | 51.59847 | 0.65969 | 35373 ft | 464 kts | 289° |
| 2026-05-07 18:48 | 51.61205 | 0.61249 | 35570 ft | 467 kts | 297° |
| 2026-05-07 18:48 | 51.62991 | 0.56852 | 35754 ft | 470 kts | 304° |
| 2026-05-07 18:48 | 51.64972 | 0.52657 | 35946 ft | 471 kts | 306° |
| 2026-05-07 18:48 | 51.67138 | 0.48670 | 36114 ft | 474 kts | 313° |
| 2026-05-07 18:49 | 51.69562 | 0.45023 | 36310 ft | 476 kts | 315° |
| 2026-05-07 18:49 | 51.72038 | 0.41467 | 36494 ft | 477 kts | 316° |
| 2026-05-07 18:49 | 51.74514 | 0.37976 | 36676 ft | 478 kts | 316° |
| 2026-05-07 18:49 | 51.77032 | 0.34445 | 36868 ft | 478 kts | 316° |
| 2026-05-07 18:50 | 51.79546 | 0.30911 | 37039 ft | 479 kts | 316° |
| 2026-05-07 18:50 | 51.82063 | 0.27354 | 37220 ft | 479 kts | 316° |
| 2026-05-07 18:50 | 51.84544 | 0.23832 | 37365 ft | 480 kts | 316° |
| 2026-05-07 18:50 | 51.87060 | 0.20245 | 37533 ft | 481 kts | 316° |
| 2026-05-07 18:51 | 51.89572 | 0.16652 | 37698 ft | 481 kts | 316° |
| 2026-05-07 18:51 | 51.92080 | 0.13057 | 37875 ft | 481 kts | 316° |
| 2026-05-07 18:51 | 51.94556 | 0.09501 | 38030 ft | 482 kts | 316° |
| 2026-05-07 18:52 | 51.99609 | 0.02229 | 38077 ft | 486 kts | 316° |
| 2026-05-07 18:52 | 52.05117 | -0.04170 | 38056 ft | 489 kts | 327° |
| 2026-05-07 18:53 | 52.11035 | -0.09549 | 38048 ft | 490 kts | 329° |
| 2026-05-07 18:53 | 52.17056 | -0.14801 | 38044 ft | 490 kts | 329° |
| 2026-05-07 18:54 | 52.23083 | -0.20059 | 38043 ft | 490 kts | 329° |
| 2026-05-07 18:54 | 52.29093 | -0.25346 | 38055 ft | 490 kts | 329° |
| 2026-05-07 18:55 | 52.35067 | -0.30629 | 38050 ft | 491 kts | 329° |
| 2026-05-07 18:55 | 52.41089 | -0.35982 | 38049 ft | 491 kts | 329° |
| 2026-05-07 18:56 | 52.47107 | -0.41350 | 38050 ft | 491 kts | 329° |
| 2026-05-07 18:56 | 52.53078 | -0.46689 | 38051 ft | 491 kts | 329° |
| 2026-05-07 18:57 | 52.59092 | -0.52082 | 38046 ft | 492 kts | 329° |
| 2026-05-07 18:57 | 52.65111 | -0.57496 | 38048 ft | 492 kts | 329° |
| 2026-05-07 18:58 | 52.71120 | -0.62917 | 38047 ft | 492 kts | 329° |
| 2026-05-07 18:58 | 52.77093 | -0.68324 | 38055 ft | 492 kts | 329° |
| 2026-05-07 18:59 | 52.83103 | -0.73782 | 38050 ft | 493 kts | 329° |
| 2026-05-07 18:59 | 52.89125 | -0.79268 | 38047 ft | 493 kts | 329° |
| 2026-05-07 19:00 | 52.95108 | -0.84736 | 38041 ft | 493 kts | 329° |
| 2026-05-07 19:00 | 53.01119 | -0.90246 | 38053 ft | 493 kts | 329° |
| 2026-05-07 19:01 | 53.07144 | -0.95777 | 38040 ft | 494 kts | 329° |
| 2026-05-07 19:01 | 53.13134 | -1.01303 | 38042 ft | 494 kts | 329° |
| 2026-05-07 19:02 | 53.19160 | -1.06880 | 38034 ft | 494 kts | 329° |
| 2026-05-07 19:02 | 53.25178 | -1.12465 | 38048 ft | 494 kts | 329° |
| 2026-05-07 19:03 | 53.31168 | -1.18042 | 38043 ft | 495 kts | 329° |
| 2026-05-07 19:03 | 53.37199 | -1.23675 | 38021 ft | 496 kts | 328° |
| 2026-05-07 19:04 | 53.43202 | -1.29299 | 38022 ft | 496 kts | 328° |
| 2026-05-07 19:04 | 53.49227 | -1.34971 | 38035 ft | 496 kts | 328° |
| 2026-05-07 19:05 | 53.55241 | -1.40658 | 38038 ft | 496 kts | 328° |
| 2026-05-07 19:05 | 53.61220 | -1.46330 | 38031 ft | 496 kts | 328° |
| 2026-05-07 19:06 | 53.67238 | -1.52054 | 38012 ft | 496 kts | 328° |
| 2026-05-07 19:06 | 53.75822 | -1.61683 | 38022 ft | 492 kts | 317° |
| 2026-05-07 19:07 | 53.80933 | -1.69313 | 38019 ft | 493 kts | 315° |
| 2026-05-07 19:07 | 53.86000 | -1.77153 | 38022 ft | 493 kts | 315° |
| 2026-05-07 19:08 | 53.91063 | -1.85027 | 38020 ft | 493 kts | 315° |
| 2026-05-07 19:08 | 53.96129 | -1.92898 | 38022 ft | 493 kts | 315° |
| 2026-05-07 19:09 | 54.01225 | -2.00613 | 38022 ft | 495 kts | 320° |
| 2026-05-07 19:09 | 54.07020 | -2.07029 | 38021 ft | 498 kts | 327° |
| 2026-05-07 19:10 | 54.12984 | -2.13059 | 38021 ft | 498 kts | 327° |
| 2026-05-07 19:10 | 54.18972 | -2.19035 | 38016 ft | 498 kts | 327° |
| 2026-05-07 19:11 | 54.24955 | -2.25044 | 38019 ft | 498 kts | 327° |
| 2026-05-07 19:11 | 54.30898 | -2.31057 | 38014 ft | 499 kts | 327° |
| 2026-05-07 19:12 | 54.36884 | -2.37141 | 38006 ft | 499 kts | 327° |
| 2026-05-07 19:12 | 54.42859 | -2.43236 | 38004 ft | 499 kts | 327° |
| 2026-05-07 19:13 | 54.48792 | -2.49307 | 38009 ft | 499 kts | 327° |
| 2026-05-07 19:13 | 54.54774 | -2.55450 | 38003 ft | 500 kts | 327° |
| 2026-05-07 19:14 | 54.60763 | -2.61621 | 37998 ft | 500 kts | 327° |
| 2026-05-07 19:14 | 54.66731 | -2.67791 | 37995 ft | 500 kts | 327° |
| 2026-05-07 19:15 | 54.72661 | -2.73941 | 38002 ft | 499 kts | 326° |
| 2026-05-07 19:15 | 54.78626 | -2.80152 | 37991 ft | 500 kts | 326° |
| 2026-05-07 19:16 | 54.84603 | -2.86397 | 37985 ft | 501 kts | 326° |
| 2026-05-07 19:16 | 54.90163 | -2.93446 | 37985 ft | 497 kts | 317° |
| 2026-05-07 19:17 | 54.95424 | -3.01240 | 37982 ft | 496 kts | 316° |
| 2026-05-07 19:17 | 55.00638 | -3.09173 | 37983 ft | 496 kts | 315° |
| 2026-05-07 19:18 | 55.05838 | -3.17124 | 37981 ft | 497 kts | 315° |
| 2026-05-07 19:18 | 55.11008 | -3.25032 | 37982 ft | 497 kts | 315° |
| 2026-05-07 19:19 | 55.16213 | -3.33010 | 37980 ft | 496 kts | 315° |
| 2026-05-07 19:19 | 55.21397 | -3.40982 | 37980 ft | 495 kts | 315° |
| 2026-05-07 19:20 | 55.26574 | -3.48974 | 37978 ft | 496 kts | 315° |
| 2026-05-07 19:20 | 55.31716 | -3.56941 | 37966 ft | 496 kts | 315° |
| 2026-05-07 19:21 | 55.36882 | -3.64976 | 37968 ft | 495 kts | 315° |
| 2026-05-07 19:21 | 55.42046 | -3.73034 | 37961 ft | 495 kts | 315° |
| 2026-05-07 19:22 | 55.47198 | -3.81105 | 37971 ft | 495 kts | 315° |
| 2026-05-07 19:22 | 55.52309 | -3.89140 | 37947 ft | 495 kts | 314° |
| 2026-05-07 19:23 | 55.57441 | -3.97236 | 37953 ft | 493 kts | 314° |
| 2026-05-07 19:23 | 55.62549 | -4.05324 | 37941 ft | 492 kts | 314° |
| 2026-05-07 19:24 | 55.67655 | -4.13441 | 37945 ft | 492 kts | 314° |
| 2026-05-07 19:24 | 55.72715 | -4.21512 | 37932 ft | 492 kts | 314° |
| 2026-05-07 19:25 | 55.77808 | -4.29666 | 37935 ft | 492 kts | 314° |
| 2026-05-07 19:25 | 55.82870 | -4.37800 | 37936 ft | 492 kts | 314° |
| 2026-05-07 19:26 | 55.87946 | -4.45983 | 37934 ft | 492 kts | 314° |
| 2026-05-07 19:26 | 55.93066 | -4.54089 | 37946 ft | 492 kts | 315° |
| 2026-05-07 19:27 | 55.98170 | -4.62102 | 37938 ft | 491 kts | 315° |
| 2026-05-07 19:27 | 56.03291 | -4.70188 | 37924 ft | 490 kts | 315° |
| 2026-05-07 19:28 | 56.08405 | -4.78320 | 37920 ft | 490 kts | 315° |
| 2026-05-07 19:28 | 56.13465 | -4.86402 | 37923 ft | 490 kts | 315° |
| 2026-05-07 19:29 | 56.17710 | -4.93208 | 37923 ft | 490 kts | 315° |
| 2026-05-07 19:29 | 56.22794 | -5.01383 | 37919 ft | 490 kts | 314° |
| 2026-05-07 19:30 | 56.27873 | -5.09579 | 37914 ft | 491 kts | 314° |
| 2026-05-07 19:30 | 56.32924 | -5.17760 | 37925 ft | 491 kts | 314° |
| 2026-05-07 19:31 | 56.38015 | -5.26038 | 37906 ft | 492 kts | 314° |
| 2026-05-07 19:31 | 56.43105 | -5.34346 | 37902 ft | 492 kts | 314° |
| 2026-05-07 19:32 | 56.48186 | -5.42668 | 37903 ft | 493 kts | 314° |
| 2026-05-07 19:32 | 56.53279 | -5.51045 | 37897 ft | 494 kts | 314° |
| 2026-05-07 19:33 | 56.58337 | -5.59394 | 37890 ft | 495 kts | 314° |
| 2026-05-07 19:33 | 56.63435 | -5.67842 | 37883 ft | 495 kts | 314° |
| 2026-05-07 19:34 | 56.68514 | -5.76289 | 37883 ft | 495 kts | 314° |
| 2026-05-07 19:34 | 56.73555 | -5.84706 | 37898 ft | 495 kts | 314° |
| 2026-05-07 19:35 | 56.78652 | -5.93248 | 37874 ft | 497 kts | 313° |
| 2026-05-07 19:35 | 56.83744 | -6.01816 | 37867 ft | 497 kts | 313° |
| 2026-05-07 19:36 | 56.88800 | -6.10354 | 37865 ft | 497 kts | 313° |
| 2026-05-07 19:36 | 56.93875 | -6.18959 | 37857 ft | 497 kts | 313° |
| 2026-05-07 19:37 | 56.98944 | -6.27587 | 37862 ft | 497 kts | 313° |
| 2026-05-07 19:37 | 57.04028 | -6.36278 | 37850 ft | 498 kts | 313° |
| 2026-05-07 19:38 | 57.09060 | -6.44910 | 37843 ft | 498 kts | 313° |
| 2026-05-07 19:38 | 57.14120 | -6.53623 | 37838 ft | 498 kts | 313° |
| 2026-05-07 19:39 | 57.19178 | -6.62369 | 37836 ft | 498 kts | 313° |
| 2026-05-07 19:39 | 57.24227 | -6.71134 | 37827 ft | 498 kts | 313° |
| 2026-05-07 19:40 | 57.29246 | -6.79881 | 37820 ft | 499 kts | 312° |
| 2026-05-07 19:40 | 57.34296 | -6.88716 | 37807 ft | 499 kts | 312° |
| 2026-05-07 19:41 | 57.39330 | -6.97560 | 37804 ft | 499 kts | 312° |
| 2026-05-07 19:41 | 57.44364 | -7.06438 | 37800 ft | 499 kts | 312° |
| 2026-05-07 19:42 | 57.49352 | -7.15269 | 37800 ft | 498 kts | 312° |
| 2026-05-07 19:42 | 57.54371 | -7.24193 | 37821 ft | 498 kts | 312° |
| 2026-05-07 19:43 | 57.59370 | -7.33112 | 37800 ft | 496 kts | 312° |
| 2026-05-07 19:43 | 57.64315 | -7.41972 | 37795 ft | 495 kts | 312° |
| 2026-05-07 19:44 | 57.69283 | -7.50912 | 37769 ft | 495 kts | 311° |
| 2026-05-07 19:44 | 57.74241 | -7.59870 | 37747 ft | 495 kts | 311° |
| 2026-05-07 19:45 | 57.79193 | -7.68850 | 37749 ft | 495 kts | 311° |
| 2026-05-07 19:45 | 57.84108 | -7.77800 | 37738 ft | 495 kts | 311° |
| 2026-05-07 19:46 | 57.89045 | -7.86829 | 37730 ft | 495 kts | 311° |
| 2026-05-07 19:46 | 57.93975 | -7.95882 | 37736 ft | 495 kts | 311° |
| 2026-05-07 19:47 | 57.98910 | -8.04982 | 37719 ft | 496 kts | 311° |
| 2026-05-07 19:47 | 58.03838 | -8.14104 | 37703 ft | 496 kts | 311° |
| 2026-05-07 19:48 | 58.08733 | -8.23204 | 37702 ft | 496 kts | 311° |
| 2026-05-07 19:48 | 58.13651 | -8.32381 | 37693 ft | 496 kts | 311° |
| 2026-05-07 19:49 | 58.18567 | -8.41593 | 37682 ft | 496 kts | 311° |
| 2026-05-07 19:49 | 58.23443 | -8.50764 | 37674 ft | 495 kts | 311° |
| 2026-05-07 19:50 | 58.28333 | -8.60004 | 37674 ft | 495 kts | 311° |
| 2026-05-07 19:50 | 58.33216 | -8.69270 | 37662 ft | 495 kts | 310° |
| 2026-05-07 19:51 | 58.38056 | -8.78493 | 37660 ft | 494 kts | 311° |
| 2026-05-07 19:51 | 58.42918 | -8.87791 | 37643 ft | 494 kts | 311° |
| 2026-05-07 19:52 | 58.47777 | -8.97126 | 37647 ft | 494 kts | 311° |
| 2026-05-07 19:52 | 58.52590 | -9.06408 | 37625 ft | 494 kts | 311° |
| 2026-05-07 19:53 | 58.57429 | -9.15781 | 37624 ft | 494 kts | 311° |
| 2026-05-07 19:53 | 58.62259 | -9.25174 | 37624 ft | 494 kts | 310° |
| 2026-05-07 19:54 | 58.67055 | -9.34539 | 37619 ft | 494 kts | 310° |
| 2026-05-07 19:54 | 58.71871 | -9.43987 | 37615 ft | 495 kts | 310° |
| 2026-05-07 19:55 | 58.76696 | -9.53493 | 37609 ft | 496 kts | 311° |
| 2026-05-07 19:55 | 58.81528 | -9.63046 | 37612 ft | 496 kts | 311° |
| 2026-05-07 19:56 | 58.86319 | -9.72559 | 37602 ft | 496 kts | 311° |
| 2026-05-07 19:56 | 58.91134 | -9.82163 | 37594 ft | 496 kts | 310° |
| 2026-05-07 19:57 | 58.95940 | -9.91791 | 37594 ft | 497 kts | 310° |
| 2026-05-07 19:57 | 59.00719 | -10.01408 | 37587 ft | 497 kts | 310° |
| 2026-05-07 19:58 | 59.05332 | -10.11392 | 37592 ft | 496 kts | 307° |
| 2026-05-07 19:58 | 59.09790 | -10.21534 | 37587 ft | 496 kts | 307° |
| 2026-05-07 19:59 | 59.14291 | -10.31741 | 37588 ft | 495 kts | 308° |
| 2026-05-07 19:59 | 59.18796 | -10.41890 | 37599 ft | 495 kts | 308° |
| 2026-05-07 20:00 | 59.23281 | -10.52004 | 37583 ft | 495 kts | 308° |
| 2026-05-07 20:00 | 59.27785 | -10.62199 | 37589 ft | 495 kts | 308° |
| 2026-05-07 20:01 | 59.32252 | -10.72360 | 37584 ft | 495 kts | 308° |
| 2026-05-07 20:01 | 59.36740 | -10.82617 | 37583 ft | 495 kts | 308° |
| 2026-05-07 20:02 | 59.41217 | -10.92895 | 37584 ft | 495 kts | 307° |
| 2026-05-07 20:02 | 59.45664 | -11.03151 | 37584 ft | 495 kts | 308° |
| 2026-05-07 20:03 | 59.50124 | -11.13482 | 37582 ft | 495 kts | 308° |
| 2026-05-07 20:03 | 59.54570 | -11.23825 | 37581 ft | 494 kts | 308° |
| 2026-05-07 20:04 | 59.59011 | -11.34203 | 37584 ft | 494 kts | 308° |
| 2026-05-07 20:04 | 59.63409 | -11.44527 | 37583 ft | 494 kts | 308° |
| 2026-05-07 20:05 | 59.67824 | -11.54939 | 37599 ft | 494 kts | 308° |
| 2026-05-07 20:05 | 59.72242 | -11.65403 | 37592 ft | 494 kts | 308° |
| 2026-05-07 20:06 | 59.76626 | -11.75834 | 37595 ft | 495 kts | 307° |
| 2026-05-07 20:06 | 59.81029 | -11.86359 | 37595 ft | 495 kts | 307° |
| 2026-05-07 20:07 | 59.85418 | -11.96897 | 37605 ft | 494 kts | 307° |
| 2026-05-07 20:07 | 59.89757 | -12.07363 | 37609 ft | 492 kts | 306° |
| 2026-05-07 20:08 | 59.94106 | -12.17895 | 37613 ft | 491 kts | 307° |
| 2026-05-07 20:08 | 59.98446 | -12.28456 | 37631 ft | 491 kts | 306° |
| 2026-05-07 20:09 | 60.02737 | -12.38953 | 37632 ft | 489 kts | 307° |
| 2026-05-07 20:10 | 60.09210 | -12.54881 | 37645 ft | 491 kts | 306° |
| 2026-05-07 20:10 | 60.13516 | -12.65534 | 37664 ft | 493 kts | 307° |
| 2026-05-07 20:11 | 60.17831 | -12.76259 | 37673 ft | 493 kts | 307° |
| 2026-05-07 20:11 | 60.22099 | -12.86917 | 37682 ft | 490 kts | 307° |
| 2026-05-07 20:12 | 60.26377 | -12.97638 | 37719 ft | 489 kts | 306° |
| 2026-05-07 20:12 | 60.30607 | -13.08292 | 37724 ft | 489 kts | 306° |
| 2026-05-07 20:13 | 60.34855 | -13.19039 | 37738 ft | 490 kts | 307° |
| 2026-05-07 20:13 | 60.39095 | -13.29827 | 37766 ft | 489 kts | 307° |
| 2026-05-07 20:14 | 60.43339 | -13.40667 | 37781 ft | 491 kts | 307° |
| 2026-05-07 20:14 | 60.47563 | -13.51510 | 37778 ft | 492 kts | 306° |
| 2026-05-07 20:15 | 60.51797 | -13.62425 | 37777 ft | 490 kts | 307° |
| 2026-05-07 20:15 | 60.55988 | -13.73285 | 37818 ft | 490 kts | 306° |
| 2026-05-07 20:16 | 60.60172 | -13.84179 | 37819 ft | 486 kts | 306° |
| 2026-05-07 20:16 | 60.64334 | -13.95066 | 37834 ft | 488 kts | 307° |
| 2026-05-07 20:17 | 60.68488 | -14.05975 | 37832 ft | 489 kts | 306° |
| 2026-05-07 20:17 | 60.72658 | -14.16990 | 37853 ft | 491 kts | 307° |
| 2026-05-07 20:18 | 60.76825 | -14.28050 | 37850 ft | 490 kts | 307° |
| 2026-05-07 20:18 | 60.80289 | -14.37276 | 37880 ft | 490 kts | 306° |
| 2026-05-07 20:19 | 60.84410 | -14.48309 | 37885 ft | 490 kts | 306° |
| 2026-05-07 20:19 | 60.88542 | -14.59422 | 37880 ft | 489 kts | 306° |
| 2026-05-07 20:20 | 60.92659 | -14.70547 | 37900 ft | 487 kts | 306° |
| 2026-05-07 20:20 | 60.96765 | -14.81697 | 37915 ft | 490 kts | 306° |
| 2026-05-07 20:21 | 61.00877 | -14.92904 | 37911 ft | 489 kts | 306° |
| 2026-05-07 20:21 | 61.04946 | -15.04067 | 37912 ft | 491 kts | 306° |
| 2026-05-07 20:22 | 61.09050 | -15.15378 | 37941 ft | 492 kts | 306° |
| 2026-05-07 20:22 | 61.13137 | -15.26689 | 37936 ft | 490 kts | 306° |
| 2026-05-07 20:23 | 61.17211 | -15.38031 | 37935 ft | 491 kts | 306° |
| 2026-05-07 20:23 | 61.21276 | -15.49389 | 37970 ft | 489 kts | 306° |
| 2026-05-07 20:24 | 61.25291 | -15.60671 | 37968 ft | 489 kts | 306° |
| 2026-05-07 20:24 | 61.29319 | -15.72049 | 37980 ft | 489 kts | 306° |
| 2026-05-07 20:25 | 61.33357 | -15.83503 | 37981 ft | 489 kts | 306° |
| 2026-05-07 20:25 | 61.37380 | -15.94974 | 38001 ft | 490 kts | 306° |
| 2026-05-07 20:26 | 61.41390 | -16.06470 | 38003 ft | 492 kts | 306° |
| 2026-05-07 20:26 | 61.45418 | -16.18068 | 38011 ft | 491 kts | 306° |
| 2026-05-07 20:27 | 61.49422 | -16.29662 | 38024 ft | 490 kts | 306° |
| 2026-05-07 20:27 | 61.53390 | -16.41205 | 38028 ft | 491 kts | 305° |
| 2026-05-07 20:28 | 61.57360 | -16.52816 | 38037 ft | 487 kts | 306° |
| 2026-05-07 20:28 | 61.61267 | -16.64297 | 38045 ft | 486 kts | 306° |
| 2026-05-07 20:29 | 61.65196 | -16.75902 | 38054 ft | 488 kts | 306° |
| 2026-05-07 20:29 | 61.69134 | -16.87586 | 38054 ft | 487 kts | 306° |
| 2026-05-07 20:30 | 61.73058 | -16.99291 | 38071 ft | 489 kts | 306° |
| 2026-05-07 20:30 | 61.76956 | -17.10984 | 38080 ft | 489 kts | 306° |
| 2026-05-07 20:31 | 61.80855 | -17.22736 | 38086 ft | 489 kts | 306° |
| 2026-05-07 20:31 | 61.84751 | -17.34543 | 38085 ft | 487 kts | 306° |
| 2026-05-07 20:32 | 61.88623 | -17.46325 | 38096 ft | 489 kts | 306° |
| 2026-05-07 20:32 | 61.92478 | -17.58132 | 38104 ft | 487 kts | 306° |
| 2026-05-07 20:33 | 61.96324 | -17.69968 | 38103 ft | 485 kts | 306° |
| 2026-05-07 20:33 | 62.00147 | -17.81789 | 38119 ft | 484 kts | 306° |
| 2026-05-07 20:34 | 62.03945 | -17.93582 | 38125 ft | 487 kts | 306° |
| 2026-05-07 20:34 | 62.07766 | -18.05517 | 38127 ft | 484 kts | 306° |
| 2026-05-07 20:35 | 62.11554 | -18.17416 | 38122 ft | 485 kts | 305° |
| 2026-05-07 20:35 | 62.15359 | -18.29433 | 38131 ft | 489 kts | 305° |
| 2026-05-07 20:36 | 62.19169 | -18.41533 | 38141 ft | 489 kts | 306° |
| 2026-05-07 20:36 | 62.22924 | -18.53517 | 38139 ft | 486 kts | 306° |
| 2026-05-07 20:37 | 62.26685 | -18.65577 | 38136 ft | 485 kts | 305° |
| 2026-05-07 20:37 | 62.30433 | -18.77665 | 38147 ft | 486 kts | 305° |
| 2026-05-07 20:38 | 62.34170 | -18.89782 | 38150 ft | 485 kts | 305° |
| 2026-05-07 20:38 | 62.37894 | -19.01919 | 38149 ft | 486 kts | 305° |
| 2026-05-07 20:39 | 62.41615 | -19.14110 | 38144 ft | 485 kts | 305° |
| 2026-05-07 20:39 | 62.45292 | -19.26222 | 38050 ft | 481 kts | 304° |
| 2026-05-07 20:39 | 62.47118 | -19.32262 | 37509 ft | 478 kts | 304° |
| 2026-05-07 20:40 | 62.48935 | -19.38288 | 36837 ft | 477 kts | 304° |
| 2026-05-07 20:40 | 62.50741 | -19.44294 | 36186 ft | 477 kts | 304° |
| 2026-05-07 20:40 | 62.52552 | -19.50335 | 35563 ft | 475 kts | 305° |
| 2026-05-07 20:40 | 62.54497 | -19.56081 | 35042 ft | 470 kts | 311° |
| 2026-05-07 20:41 | 62.56547 | -19.61454 | 34592 ft | 465 kts | 311° |
| 2026-05-07 20:41 | 62.58623 | -19.66836 | 33885 ft | 465 kts | 312° |
| 2026-05-07 20:41 | 62.60716 | -19.72244 | 32986 ft | 468 kts | 312° |
| 2026-05-07 20:41 | 62.62809 | -19.77652 | 32282 ft | 466 kts | 312° |
| 2026-05-07 20:42 | 62.64887 | -19.83028 | 31652 ft | 458 kts | 312° |
| 2026-05-07 20:42 | 62.66911 | -19.88279 | 30682 ft | 449 kts | 312° |
| 2026-05-07 20:42 | 62.68897 | -19.93440 | 29615 ft | 440 kts | 312° |
| 2026-05-07 20:42 | 62.70847 | -19.98516 | 28491 ft | 432 kts | 312° |
| 2026-05-07 20:43 | 62.72747 | -20.03471 | 27788 ft | 416 kts | 312° |
| 2026-05-07 20:43 | 62.74538 | -20.08157 | 27343 ft | 397 kts | 312° |
| 2026-05-07 20:43 | 62.76263 | -20.12680 | 26907 ft | 378 kts | 312° |
| 2026-05-07 20:43 | 62.77919 | -20.17026 | 26506 ft | 366 kts | 312° |
| 2026-05-07 20:44 | 62.79540 | -20.21282 | 26087 ft | 363 kts | 312° |
| 2026-05-07 20:44 | 62.81151 | -20.25517 | 25694 ft | 361 kts | 312° |
| 2026-05-07 20:44 | 62.82753 | -20.29739 | 25279 ft | 358 kts | 312° |
| 2026-05-07 20:44 | 62.84320 | -20.33878 | 24893 ft | 356 kts | 312° |
| 2026-05-07 20:45 | 62.85900 | -20.38060 | 24479 ft | 355 kts | 312° |
| 2026-05-07 20:45 | 62.87476 | -20.42240 | 24074 ft | 354 kts | 312° |
| 2026-05-07 20:45 | 62.89044 | -20.46407 | 23636 ft | 352 kts | 311° |
| 2026-05-07 20:45 | 62.90576 | -20.50487 | 23206 ft | 348 kts | 311° |
| 2026-05-07 20:46 | 62.92109 | -20.54576 | 22796 ft | 344 kts | 311° |
| 2026-05-07 20:46 | 62.93623 | -20.58623 | 22399 ft | 342 kts | 311° |
| 2026-05-07 20:46 | 62.95128 | -20.62652 | 21999 ft | 340 kts | 311° |
| 2026-05-07 20:46 | 62.96621 | -20.66654 | 21582 ft | 338 kts | 311° |
| 2026-05-07 20:47 | 62.98110 | -20.70654 | 21195 ft | 337 kts | 311° |
| 2026-05-07 20:47 | 62.99592 | -20.74643 | 20789 ft | 335 kts | 311° |
| 2026-05-07 20:47 | 63.01044 | -20.78556 | 20403 ft | 333 kts | 311° |
| 2026-05-07 20:47 | 63.02500 | -20.82491 | 20010 ft | 331 kts | 311° |
| 2026-05-07 20:48 | 63.03950 | -20.86414 | 19610 ft | 329 kts | 311° |
| 2026-05-07 20:48 | 63.05387 | -20.90309 | 19221 ft | 327 kts | 311° |
| 2026-05-07 20:48 | 63.06817 | -20.94191 | 18820 ft | 325 kts | 311° |
| 2026-05-07 20:48 | 63.08236 | -20.98048 | 18428 ft | 323 kts | 311° |
| 2026-05-07 20:49 | 63.09644 | -21.01886 | 18019 ft | 320 kts | 311° |
| 2026-05-07 20:49 | 63.11044 | -21.05706 | 17619 ft | 319 kts | 311° |
| 2026-05-07 20:49 | 63.12435 | -21.09509 | 17231 ft | 317 kts | 311° |
| 2026-05-07 20:49 | 63.13817 | -21.13294 | 16849 ft | 315 kts | 311° |
| 2026-05-07 20:50 | 63.15190 | -21.17059 | 16459 ft | 313 kts | 311° |
| 2026-05-07 20:50 | 63.16556 | -21.20812 | 16068 ft | 311 kts | 311° |
| 2026-05-07 20:50 | 63.17911 | -21.24537 | 15689 ft | 310 kts | 311° |
| 2026-05-07 20:50 | 63.19344 | -21.27991 | 15354 ft | 306 kts | 319° |
| 2026-05-07 20:51 | 63.20941 | -21.31100 | 14984 ft | 304 kts | 321° |
| 2026-05-07 20:51 | 63.22562 | -21.34120 | 14616 ft | 303 kts | 322° |
| 2026-05-07 20:51 | 63.24173 | -21.37116 | 14247 ft | 301 kts | 322° |
| 2026-05-07 20:51 | 63.25772 | -21.40101 | 13865 ft | 300 kts | 322° |
| 2026-05-07 20:52 | 63.27367 | -21.43086 | 13480 ft | 298 kts | 321° |
| 2026-05-07 20:52 | 63.28946 | -21.46049 | 13111 ft | 297 kts | 321° |
| 2026-05-07 20:52 | 63.30520 | -21.49009 | 12741 ft | 295 kts | 321° |
| 2026-05-07 20:52 | 63.32087 | -21.51960 | 12399 ft | 294 kts | 321° |
| 2026-05-07 20:53 | 63.33643 | -21.54895 | 12036 ft | 293 kts | 321° |
| 2026-05-07 20:53 | 63.35194 | -21.57827 | 11679 ft | 291 kts | 321° |
| 2026-05-07 20:53 | 63.36742 | -21.60756 | 11331 ft | 292 kts | 321° |
| 2026-05-07 20:53 | 63.38287 | -21.63680 | 11013 ft | 291 kts | 321° |
| 2026-05-07 20:54 | 63.39808 | -21.66571 | 10851 ft | 281 kts | 321° |
| 2026-05-07 20:54 | 63.41250 | -21.69318 | 10742 ft | 270 kts | 321° |
| 2026-05-07 20:54 | 63.42650 | -21.71986 | 10599 ft | 260 kts | 321° |
| 2026-05-07 20:54 | 63.44003 | -21.74568 | 10476 ft | 252 kts | 321° |
| 2026-05-07 20:55 | 63.45330 | -21.77099 | 10227 ft | 250 kts | 321° |
| 2026-05-07 20:55 | 63.46672 | -21.79659 | 10016 ft | 262 kts | 321° |
| 2026-05-07 20:55 | 63.48083 | -21.82352 | 9931 ft | 268 kts | 321° |
| 2026-05-07 20:55 | 63.49495 | -21.85059 | 9520 ft | 268 kts | 321° |
| 2026-05-07 20:56 | 63.50906 | -21.87767 | 9106 ft | 266 kts | 321° |
| 2026-05-07 20:56 | 63.52309 | -21.90463 | 8837 ft | 265 kts | 321° |
| 2026-05-07 20:56 | 63.53694 | -21.93130 | 8554 ft | 263 kts | 321° |
| 2026-05-07 20:56 | 63.55088 | -21.95811 | 8277 ft | 262 kts | 321° |
| 2026-05-07 20:57 | 63.56470 | -21.98471 | 8027 ft | 261 kts | 321° |
| 2026-05-07 20:57 | 63.57830 | -22.01101 | 7777 ft | 261 kts | 321° |
| 2026-05-07 20:57 | 63.59204 | -22.03763 | 7501 ft | 259 kts | 321° |
| 2026-05-07 20:57 | 63.60564 | -22.06399 | 7211 ft | 258 kts | 321° |
| 2026-05-07 20:58 | 63.61919 | -22.09033 | 6959 ft | 257 kts | 321° |
| 2026-05-07 20:58 | 63.63270 | -22.11649 | 6698 ft | 255 kts | 322° |
| 2026-05-07 20:58 | 63.64620 | -22.14266 | 6269 ft | 256 kts | 322° |
| 2026-05-07 20:58 | 63.65957 | -22.16875 | 5942 ft | 252 kts | 321° |
| 2026-05-07 20:59 | 63.67284 | -22.19479 | 5663 ft | 254 kts | 320° |
| 2026-05-07 20:59 | 63.68600 | -22.22067 | 5390 ft | 251 kts | 321° |
| 2026-05-07 20:59 | 63.69918 | -22.24629 | 5162 ft | 250 kts | 321° |
| 2026-05-07 20:59 | 63.71232 | -22.27188 | 4886 ft | 247 kts | 322° |
| 2026-05-07 21:00 | 63.72523 | -22.29721 | 4623 ft | 245 kts | 322° |
| 2026-05-07 21:00 | 63.73816 | -22.32258 | 4374 ft | 245 kts | 322° |
| 2026-05-07 21:00 | 63.75076 | -22.34743 | 4218 ft | 235 kts | 322° |
| 2026-05-07 21:00 | 63.76255 | -22.37181 | 4091 ft | 227 kts | 316° |
| 2026-05-07 21:01 | 63.77109 | -22.40182 | 3944 ft | 230 kts | 299° |
| 2026-05-07 21:01 | 63.77694 | -22.43545 | 3713 ft | 229 kts | 296° |
| 2026-05-07 21:01 | 63.78230 | -22.46933 | 3480 ft | 229 kts | 295° |
| 2026-05-07 21:01 | 63.78779 | -22.50303 | 3245 ft | 228 kts | 297° |
| 2026-05-07 21:02 | 63.79315 | -22.53611 | 3076 ft | 223 kts | 296° |
| 2026-05-07 21:02 | 63.79839 | -22.56818 | 3006 ft | 210 kts | 300° |
| 2026-05-07 21:02 | 63.80639 | -22.59320 | 3012 ft | 184 kts | 326° |
| 2026-05-07 21:02 | 63.81737 | -22.60445 | 3025 ft | 168 kts | 352° |
| 2026-05-07 21:03 | 63.82504 | -22.60611 | 3005 ft | 167 kts | 359° |
| 2026-05-07 21:03 | 63.83669 | -22.60623 | 2980 ft | 167 kts | 1° |
| 2026-05-07 21:03 | 63.85129 | -22.60594 | 2999 ft | 151 kts | 2° |
| 2026-05-07 21:03 | 63.85822 | -22.60585 | 2950 ft | 150 kts | 1° |
| 2026-05-07 21:04 | 63.86856 | -22.60609 | 2769 ft | 145 kts | 0° |
| 2026-05-07 21:04 | 63.87819 | -22.60673 | 2540 ft | 135 kts | 0° |
| 2026-05-07 21:04 | 63.88757 | -22.60704 | 2324 ft | 134 kts | 2° |
| 2026-05-07 21:04 | 63.89700 | -22.60596 | 1970 ft | 137 kts | 5° |
| 2026-05-07 21:05 | 63.90653 | -22.60477 | 1576 ft | 136 kts | 3° |
| 2026-05-07 21:05 | 63.91576 | -22.60555 | 1316 ft | 129 kts | 359° |
| 2026-05-07 21:05 | 63.92453 | -22.60631 | 1104 ft | 124 kts | 2° |
| 2026-05-07 21:05 | 63.93301 | -22.60575 | 886 ft | 122 kts | 5° |
| 2026-05-07 21:06 | 63.94128 | -22.60563 | 709 ft | 116 kts | 1° |
| 2026-05-07 21:06 | 63.94937 | -22.60571 | 551 ft | 116 kts | 1° |
| 2026-05-07 21:06 | 63.95741 | -22.60565 | 384 ft | 114 kts | 3° |
| 2026-05-07 21:06 | 63.96531 | -22.60558 | 234 ft | 114 kts | 1° |
| 2026-05-07 21:07 | 63.97332 | -22.60551 | 156 ft | 114 kts | 1° |
| 2026-05-07 21:07 | 63.98024 | -22.60542 | 155 ft | 84 kts | 1° |
| 2026-05-07 21:07 | 63.98492 | -22.60547 | 162 ft | 40 kts | 0° |
| 2026-05-07 21:07 | 63.98724 | -22.60548 | 164 ft | 30 kts | 359° |
| 2026-05-07 21:08 | 63.98849 | -22.60713 | 169 ft | 20 kts | 314° |
| 2026-05-07 21:08 | 63.98956 | -22.60929 | 170 ft | 20 kts | 339° |
| 2026-05-07 21:08 | 63.99093 | -22.60943 | 173 ft | 19 kts | 1° |
| 2026-05-07 21:08 | 63.99171 | -22.61102 | 175 ft | 18 kts | 276° |
| 2026-05-07 21:09 | 63.99171 | -22.61427 | 173 ft | 23 kts | 269° |
| 2026-05-07 21:09 | 63.99172 | -22.61828 | 172 ft | 27 kts | 270° |
| 2026-05-07 21:09 | 63.99172 | -22.62290 | 170 ft | 31 kts | 270° |
| 2026-05-07 21:09 | 63.99179 | -22.62620 | 170 ft | 10 kts | 295° |
| 2026-05-07 21:10 | 63.99239 | -22.62702 | 169 ft | 10 kts | 333° |
| 2026-05-07 21:10 | 63.99272 | -22.62752 | 171 ft | 0 kts | 323° |
| 2026-05-07 21:11 | 63.99280 | -22.62774 | 171 ft | 4 kts | 308° |
| 2026-05-07 21:11 | 63.99285 | -22.62854 | 171 ft | 7 kts | 269° |
| 2026-05-07 21:11 | 63.99284 | -22.62905 | 171 ft | 0 kts | 269° |
| 2026-05-07 21:12 | 63.99285 | -22.62905 | 171 ft | 0 kts | 269° |
| 2026-05-07 21:12 | 63.99284 | -22.62905 | 171 ft | 0 kts | 269° |
| 2026-05-07 21:12 | 63.99285 | -22.62905 | 171 ft | 0 kts | 269° |
| 2026-05-07 21:13 | 63.99284 | -22.62905 | 171 ft | 0 kts | 269° |
| 2026-05-07 21:13 | 63.99285 | -22.62905 | 171 ft | 0 kts | 269° |
| 2026-05-07 21:14 | 63.99284 | -22.62905 | 171 ft | 0 kts | 269° |
| 2026-05-07 21:15 | 63.99285 | -22.62905 | 171 ft | 0 kts | 269° |